In Rescue
 
Open Full Screen Window  High Contrast Mode
January 22, 2020 4:59 PM CST
Weather Information
Wind Direction
  ---
Wind Speed
  00 kt (0 mph)
Wind Gust
  00 kt (0 mph)
Altimeter
29.82 in
Visibility
7 SM
Temperature
01° C
34° F
Dewpoint
01° C
34° F
Humidity
100%
1hr Rain Fall
00.00 in.
24hr Rain Fall
00.00 in.
Sky Condition
Overcast @ 1,000 ft
MVFR

METAR KLXL 222259Z AUTO 00000KT 7SM OVC010 01/01 A2982 RMK AO2

FAA Disclaimer: The data displayed is for advisory purposes only and is not to be used for flight planning or operations.